Terminal Aerodrome Forecast
Issued by NWS

Home | Current Version | Previous Version | Text Only | Print | Product List | Glossary On
Versions: 1 2 3 4 5 6 7 8 9 10 11 12 13
000
FTUS44 KLZK 060500
TAFPBF
TAF
KPBF 060523Z 0606/0706 14004KT P6SM SCT250
     FM061600 16010G16KT P6SM SCT080 BKN150
     FM070100 14006KT P6SM BKN100=

USA.gov is the U.S. government's official web portal to all federal, state and local government web resources and services.